Time;durP1;ratioP1;P1;durP2;ratioP2;P2;SDS_P1;SDS_P2;PMS_P1;PMS_P2;Temp;Humidity;BMP_temperature;BMP_pressure;BME280_temperature;BME280_humidity;BME280_pressure;Samples;Min_cycle;Max_cycle;Signal;HPM_P1;HPM_P2
2022/06/23 00:00:32;;;;;;;511.30;462.50;;;;;;;21.95;100.00;98915.97;5095562;28;20271;-76
2022/06/23 00:03:01;;;;;;;509.15;460.60;;;;;;;21.82;100.00;98911.91;5095621;28;20682;-77
2022/06/23 00:05:34;;;;;;;527.13;477.95;;;;;;;21.87;100.00;98903.16;5095714;28;20200;-75
2022/06/23 00:08:06;;;;;;;521.60;472.93;;;;;;;21.86;100.00;98910.50;5095625;28;20215;-75
2022/06/23 00:10:38;;;;;;;538.95;490.10;;;;;;;21.74;100.00;98900.97;5094800;28;20426;-75
2022/06/23 00:13:13;;;;;;;522.60;474.05;;;;;;;21.68;100.00;98898.09;5095701;28;20215;-75
2022/06/23 00:15:44;;;;;;;507.65;459.65;;;;;;;21.49;100.00;98899.38;5094919;28;20199;-75
2022/06/23 00:18:17;;;;;;;544.13;495.00;;;;;;;21.19;100.00;98901.81;5095231;28;20214;-75
2022/06/23 00:20:47;;;;;;;489.90;441.10;;;;;;;21.14;100.00;98896.88;5095137;28;20191;-75
2022/06/23 00:23:21;;;;;;;494.08;445.95;;;;;;;20.98;100.00;98902.34;5095222;28;20188;-75
2022/06/23 00:25:53;;;;;;;490.60;442.38;;;;;;;20.81;100.00;98902.38;5095318;28;20611;-76
2022/06/23 00:28:23;;;;;;;489.98;441.55;;;;;;;20.75;100.00;98902.19;5094855;28;20215;-76
2022/06/23 00:30:53;;;;;;;487.88;439.95;;;;;;;20.82;100.00;98905.97;5094831;28;20184;-74
2022/06/23 00:33:23;;;;;;;484.25;436.05;;;;;;;20.88;100.00;98901.69;5096842;28;20212;-75
2022/06/23 00:35:52;;;;;;;468.38;420.83;;;;;;;20.79;100.00;98898.09;5095006;28;20624;-75
2022/06/23 00:38:25;;;;;;;481.33;433.42;;;;;;;20.86;100.00;98887.34;5094742;28;20208;-75
2022/06/23 00:40:52;;;;;;;509.67;460.83;;;;;;;20.96;100.00;98898.94;5093904;28;20223;-74
2022/06/23 00:43:21;;;;;;;514.97;466.52;;;;;;;21.00;100.00;98892.94;5094401;28;20263;-75
2022/06/23 00:45:55;;;;;;;487.23;438.70;;;;;;;20.94;100.00;98890.91;5101512;28;20220;-82
2022/06/23 00:48:27;;;;;;;480.17;431.92;;;;;;;20.70;100.00;98905.44;5074356;28;20675;-82
2022/06/23 00:51:03;;;;;;;493.20;444.88;;;;;;;20.60;100.00;98908.38;5074273;28;20653;-83
2022/06/23 00:53:38;;;;;;;468.65;420.10;;;;;;;20.55;100.00;98909.84;5075122;28;20529;-83
2022/06/23 00:56:15;;;;;;;468.67;420.38;;;;;;;20.55;100.00;98910.69;5074690;28;20553;-82
2022/06/23 00:58:50;;;;;;;472.60;424.63;;;;;;;20.46;100.00;98917.19;5074688;28;20227;-82
2022/06/23 01:01:39;;;;;;;455.63;408.20;;;;;;;20.32;100.00;98918.72;5094861;28;20271;-82
2022/06/23 01:04:17;;;;;;;445.33;398.00;;;;;;;20.27;100.00;98921.09;5095456;28;20208;-83
2022/06/23 01:06:49;;;;;;;468.85;421.65;;;;;;;20.30;100.00;98915.28;5095764;28;20677;-82
2022/06/23 01:09:24;;;;;;;455.58;407.70;;;;;;;20.08;100.00;98924.13;5095171;28;20226;-82
2022/06/23 01:11:55;;;;;;;445.02;397.88;;;;;;;20.13;100.00;98922.59;5094516;28;20187;-83
2022/06/23 01:14:30;;;;;;;476.25;428.45;;;;;;;20.24;100.00;98915.09;5094483;28;20219;-83
2022/06/23 01:17:06;;;;;;;450.63;403.42;;;;;;;20.04;100.00;98922.75;5094433;28;20190;-83
2022/06/23 01:20:02;;;;;;;475.10;427.38;;;;;;;20.02;100.00;98930.25;5094542;28;20658;-82
2022/06/23 01:22:51;;;;;;;451.05;403.75;;;;;;;20.01;100.00;98929.38;5088123;28;20228;-82
2022/06/23 01:25:35;;;;;;;435.38;388.10;;;;;;;19.97;100.00;98936.22;5091611;28;20711;-83
2022/06/23 01:28:09;;;;;;;446.40;398.77;;;;;;;19.93;100.00;98943.03;5093922;28;20199;-82
2022/06/23 01:30:40;;;;;;;431.00;383.95;;;;;;;19.92;100.00;98938.56;5093041;28;20202;-83
2022/06/23 01:33:17;;;;;;;461.30;413.83;;;;;;;19.85;100.00;98940.25;5094482;28;20199;-83
2022/06/23 01:35:48;;;;;;;436.73;389.70;;;;;;;19.77;100.00;98943.81;5093285;28;20670;-81
2022/06/23 01:38:22;;;;;;;463.35;415.02;;;;;;;19.76;100.00;98940.25;5091509;28;20232;-82
2022/06/23 01:40:54;;;;;;;446.45;399.00;;;;;;;19.85;100.00;98943.00;5092091;28;20194;-82
2022/06/23 01:43:27;;;;;;;438.08;390.75;;;;;;;19.83;100.00;98945.91;5092105;28;20559;-82
2022/06/23 01:46:00;;;;;;;438.30;390.95;;;;;;;19.78;100.00;98940.91;5091728;28;20275;-82
2022/06/23 01:48:53;;;;;;;433.63;386.73;;;;;;;19.90;100.00;98946.97;5092582;28;20306;-81
2022/06/23 01:51:24;;;;;;;452.55;405.60;;;;;;;20.00;100.00;98942.19;5092412;28;20215;-82
2022/06/23 01:53:52;;;;;;;419.05;370.40;;;;;;;19.99;100.00;98940.50;5093238;28;20606;-83
2022/06/23 01:56:28;;;;;;;435.23;388.08;;;;;;;20.04;100.00;98940.00;5092798;28;20275;-82
2022/06/23 01:59:05;;;;;;;432.13;385.20;;;;;;;19.97;100.00;98948.00;5093042;28;20283;-83
2022/06/23 02:01:43;;;;;;;467.70;419.95;;;;;;;19.78;100.00;98940.91;5091765;28;20375;-83
2022/06/23 02:04:17;;;;;;;443.88;397.10;;;;;;;19.50;100.00;98948.44;5092113;28;20187;-83
2022/06/23 02:06:52;;;;;;;450.83;403.15;;;;;;;19.38;100.00;98938.81;5092174;28;20203;-82
2022/06/23 02:09:26;;;;;;;430.52;383.63;;;;;;;19.37;100.00;98942.56;5092544;28;20295;-83
2022/06/23 02:11:54;;;;;;;430.45;379.85;;;;;;;19.44;100.00;98940.88;5091809;28;20198;-82
2022/06/23 02:14:42;;;;;;;424.02;370.95;;;;;;;19.58;100.00;98948.50;5092711;28;20188;-82
2022/06/23 02:17:25;;;;;;;426.90;379.05;;;;;;;19.57;100.00;98929.53;5092347;28;20520;-83
2022/06/23 02:19:55;;;;;;;428.35;381.52;;;;;;;19.42;100.00;98942.06;5092436;28;20220;-83
2022/06/23 02:22:26;;;;;;;419.30;362.80;;;;;;;19.40;100.00;98941.38;5106692;28;20191;-83
2022/06/23 02:24:59;;;;;;;421.08;372.92;;;;;;;19.58;100.00;98942.16;5112608;28;20182;-83
2022/06/23 02:27:31;;;;;;;429.65;382.65;;;;;;;19.66;100.00;98942.19;5112132;28;20245;-82
2022/06/23 02:30:03;;;;;;;445.95;398.20;;;;;;;19.73;100.00;98947.91;5112234;28;20270;-83
2022/06/23 02:33:01;;;;;;;424.27;376.77;;;;;;;19.78;100.00;98937.34;5112378;28;20232;-83
2022/06/23 02:35:32;;;;;;;425.50;378.58;;;;;;;19.63;100.00;98950.72;5106986;28;20277;-82
2022/06/23 02:38:04;;;;;;;428.02;381.13;;;;;;;19.58;100.00;98945.75;5091097;28;20658;-82
2022/06/23 02:40:37;;;;;;;423.70;372.42;;;;;;;19.40;100.00;98957.75;5092156;28;21030;-84
2022/06/23 02:43:14;;;;;;;420.00;368.08;;;;;;;19.37;100.00;98957.06;5091783;28;20237;-83
2022/06/23 02:46:14;;;;;;;433.73;386.17;;;;;;;19.15;100.00;98969.38;5092136;28;20183;-83
2022/06/23 02:49:06;;;;;;;423.33;363.80;;;;;;;19.11;100.00;98972.59;5064848;28;20312;-83
2022/06/23 02:51:49;;;;;;;422.83;365.42;;;;;;;19.01;100.00;98977.25;5071611;28;20236;-83
2022/06/23 02:54:46;;;;;;;418.63;351.58;;;;;;;19.08;100.00;98983.78;5072403;28;20633;-83
2022/06/23 02:57:33;;;;;;;428.55;365.65;;;;;;;19.02;100.00;98984.44;5071561;28;20613;-83
2022/06/23 03:00:06;;;;;;;428.77;377.30;;;;;;;19.00;100.00;98986.47;5071780;28;20291;-83
2022/06/23 03:02:38;;;;;;;418.13;339.95;;;;;;;19.01;100.00;98983.56;5071457;28;20207;-82
2022/06/23 03:05:28;;;;;;;424.63;376.90;;;;;;;19.15;100.00;98979.41;5074050;28;20216;-84
2022/06/23 03:08:00;;;;;;;420.17;365.85;;;;;;;19.21;100.00;98973.31;5075170;28;20189;-83
2022/06/23 03:10:31;;;;;;;425.63;365.42;;;;;;;19.29;100.00;98980.72;5075084;28;20181;-82
2022/06/23 03:13:08;;;;;;;417.98;354.70;;;;;;;19.30;100.00;98968.78;5074213;28;20278;-83
2022/06/23 03:15:38;;;;;;;423.27;351.90;;;;;;;19.27;100.00;98967.22;5075483;28;20189;-83
2022/06/23 03:18:11;;;;;;;417.58;361.10;;;;;;;19.23;100.00;98965.84;5075063;28;20541;-83
2022/06/23 03:20:47;;;;;;;419.83;366.40;;;;;;;19.28;100.00;98968.09;5074728;28;20240;-84
2022/06/23 03:23:21;;;;;;;419.38;362.00;;;;;;;19.28;100.00;98960.75;5074735;28;20276;-83
2022/06/23 03:25:55;;;;;;;421.38;359.00;;;;;;;19.40;100.00;98974.13;5074306;28;20184;-83
2022/06/23 03:28:27;;;;;;;427.35;364.67;;;;;;;19.60;100.00;98972.88;5074438;28;20224;-82
2022/06/23 03:31:01;;;;;;;427.38;378.30;;;;;;;19.63;100.00;98967.13;5074661;28;20272;-83
2022/06/23 03:33:33;;;;;;;423.70;373.23;;;;;;;19.63;100.00;98978.03;5074409;28;20188;-83
2022/06/23 03:36:11;;;;;;;424.90;374.70;;;;;;;19.64;100.00;98977.00;5074043;28;20223;-82
2022/06/23 03:41:38;;;;;;;417.70;356.48;;;;;;;19.79;100.00;98983.63;5074171;28;20192;-82
2022/06/23 03:44:16;;;;;;;432.95;385.50;;;;;;;19.68;100.00;98975.66;5074566;28;20212;-83
2022/06/23 03:46:48;;;;;;;433.90;387.00;;;;;;;19.67;100.00;98973.97;5075715;28;20720;-83
2022/06/23 03:49:21;;;;;;;423.20;363.50;;;;;;;19.31;100.00;98970.47;5094115;28;20263;-84
2022/06/23 03:51:54;;;;;;;426.52;368.70;;;;;;;19.16;100.00;98981.16;5094162;28;20192;-82
2022/06/23 03:54:25;;;;;;;446.17;397.77;;;;;;;19.19;100.00;98990.88;5094022;28;20271;-83
2022/06/23 03:56:54;;;;;;;421.65;368.17;;;;;;;19.06;100.00;98977.63;5093847;28;20188;-82
2022/06/23 03:59:27;;;;;;;434.98;376.55;;;;;;;18.99;100.00;98987.47;5093666;28;20223;-82
2022/06/23 04:01:57;;;;;;;430.27;381.67;;;;;;;19.17;100.00;98991.03;5093750;28;20234;-83
2022/06/23 04:04:25;;;;;;;421.83;370.75;;;;;;;19.26;100.00;98981.03;5093403;28;20220;-82
2022/06/23 04:06:54;;;;;;;431.00;383.90;;;;;;;19.32;100.00;98981.25;5093969;28;20674;-82
2022/06/23 04:09:24;;;;;;;417.98;363.92;;;;;;;19.42;100.00;98977.56;5093584;28;20223;-82
2022/06/23 04:12:06;;;;;;;444.60;396.08;;;;;;;19.50;100.00;98972.16;5093655;28;20235;-82
2022/06/23 04:14:45;;;;;;;427.38;379.88;;;;;;;19.47;100.00;98983.38;5093598;28;20678;-83
2022/06/23 04:17:21;;;;;;;417.60;358.60;;;;;;;19.36;100.00;98981.81;5093962;28;20237;-82
2022/06/23 04:19:53;;;;;;;431.33;349.85;;;;;;;19.29;100.00;98973.41;5093497;28;20642;-84
2022/06/23 04:22:27;;;;;;;428.40;379.73;;;;;;;19.22;100.00;98985.97;5093612;28;20189;-83
2022/06/23 04:25:00;;;;;;;436.27;388.58;;;;;;;19.26;100.00;98976.41;5093953;28;20184;-83
2022/06/23 04:27:37;;;;;;;428.25;377.38;;;;;;;19.42;100.00;98972.94;5094075;28;20250;-83
2022/06/23 04:30:05;;;;;;;415.30;355.08;;;;;;;19.52;100.00;98970.97;5093373;28;20234;-83
2022/06/23 04:32:35;;;;;;;432.10;383.08;;;;;;;19.51;100.00;98962.94;5093515;28;20268;-83
2022/06/23 04:35:12;;;;;;;418.45;360.95;;;;;;;19.41;100.00;98970.41;5093226;28;20276;-84
2022/06/23 04:37:51;;;;;;;416.52;352.77;;;;;;;19.51;100.00;98979.31;5093275;28;20179;-83
2022/06/23 04:40:24;;;;;;;428.35;377.45;;;;;;;19.44;100.00;98979.09;5093342;28;20284;-84
2022/06/23 04:42:57;;;;;;;435.77;388.15;;;;;;;19.72;100.00;98976.25;5093276;28;20225;-82
2022/06/23 04:45:44;;;;;;;428.48;375.05;;;;;;;19.91;100.00;98981.44;5093630;28;20592;-83
2022/06/23 04:48:18;;;;;;;447.30;399.13;;;;;;;20.09;100.00;98986.81;5093096;28;20320;-84
2022/06/23 04:50:51;;;;;;;429.25;380.60;;;;;;;20.19;100.00;98976.63;5093282;28;20274;-83
2022/06/23 04:53:24;;;;;;;445.33;397.20;;;;;;;20.16;100.00;98979.66;5092849;28;20184;-82
2022/06/23 04:56:04;;;;;;;462.25;413.70;;;;;;;20.24;100.00;98977.97;5093332;28;20274;-82
2022/06/23 04:58:35;;;;;;;441.30;392.63;;;;;;;20.40;100.00;98984.34;5093125;28;20600;-82
2022/06/23 05:01:02;;;;;;;460.50;412.15;;;;;;;20.52;100.00;98990.34;5092330;28;20204;-83
2022/06/23 05:03:34;;;;;;;451.73;403.77;;;;;;;20.53;100.00;98985.72;5092469;28;20286;-84
2022/06/23 05:06:10;;;;;;;477.92;429.33;;;;;;;20.61;100.00;98985.78;5092955;28;20622;-84
2022/06/23 05:08:45;;;;;;;474.33;425.27;;;;;;;20.61;100.00;98989.38;5092260;28;20237;-83
2022/06/23 05:11:16;;;;;;;479.45;430.35;;;;;;;20.59;100.00;98999.63;5092629;28;20180;-84
2022/06/23 05:13:48;;;;;;;460.00;411.63;;;;;;;20.72;100.00;98990.09;5092513;28;20286;-84
2022/06/23 05:16:24;;;;;;;485.73;436.77;;;;;;;20.64;100.00;99003.75;5093228;28;20184;-84
2022/06/23 05:18:53;;;;;;;495.08;445.98;;;;;;;20.53;100.00;99008.50;5092248;28;20618;-85
2022/06/23 05:21:23;;;;;;;489.48;439.88;;;;;;;20.48;100.00;98999.06;5091777;28;20319;-84
2022/06/23 05:23:59;;;;;;;467.55;418.92;;;;;;;20.38;100.00;99012.88;5092468;28;20275;-86
2022/06/23 05:26:29;;;;;;;465.73;417.20;;;;;;;20.68;100.00;99013.31;5091549;28;20188;-86
2022/06/23 05:29:01;;;;;;;486.88;438.00;;;;;;;20.74;100.00;99015.41;5092591;28;20541;-86
2022/06/23 05:31:32;;;;;;;486.95;437.88;;;;;;;20.96;100.00;99014.75;5091975;28;20295;-84
2022/06/23 05:34:06;;;;;;;493.48;444.38;;;;;;;21.11;100.00;99014.91;5092877;28;20639;-82
2022/06/23 05:36:38;;;;;;;505.98;456.73;;;;;;;21.41;100.00;99013.41;5091974;28;20223;-83
2022/06/23 05:39:17;;;;;;;476.67;428.23;;;;;;;21.38;100.00;99007.38;5096876;28;20653;-83
2022/06/23 05:41:48;;;;;;;522.35;472.55;;;;;;;21.57;100.00;99007.03;5091639;28;20482;-83
2022/06/23 05:44:18;;;;;;;499.60;450.73;;;;;;;21.89;100.00;99002.50;5091821;28;20223;-82
2022/06/23 05:46:47;;;;;;;511.95;462.40;;;;;;;22.10;100.00;99007.38;5091636;28;20246;-82
2022/06/23 05:49:18;;;;;;;509.75;460.08;;;;;;;22.39;100.00;99014.16;5091282;28;20184;-83
2022/06/23 05:51:53;;;;;;;507.02;457.27;;;;;;;22.34;100.00;99005.56;5091554;28;20207;-83
2022/06/23 05:54:26;;;;;;;513.25;463.35;;;;;;;22.14;100.00;99000.50;5091205;28;20275;-82
2022/06/23 05:56:58;;;;;;;539.45;489.92;;;;;;;22.22;100.00;99000.50;5091778;28;20638;-82
2022/06/23 05:59:32;;;;;;;514.03;465.02;;;;;;;22.48;100.00;99000.19;5091469;28;20211;-82
2022/06/23 06:02:03;;;;;;;507.70;458.70;;;;;;;22.69;100.00;99012.41;5091343;28;20270;-83
2022/06/23 06:04:35;;;;;;;547.00;497.55;;;;;;;22.69;100.00;98995.97;5090639;28;20283;-83
2022/06/23 06:07:04;;;;;;;505.67;456.85;;;;;;;22.86;100.00;98999.41;5091699;28;20278;-83
2022/06/23 06:09:40;;;;;;;514.38;464.92;;;;;;;23.10;100.00;99010.25;5090832;28;20290;-83
2022/06/23 06:12:12;;;;;;;523.80;474.20;;;;;;;23.12;100.00;99012.81;5091651;28;20652;-83
2022/06/23 06:14:42;;;;;;;534.55;484.75;;;;;;;23.06;100.00;99014.41;5091758;28;20630;-83
2022/06/23 06:17:13;;;;;;;530.95;481.55;;;;;;;23.22;100.00;99018.94;5091606;28;20208;-83
2022/06/23 06:19:39;;;;;;;536.83;487.15;;;;;;;23.55;100.00;99015.03;5091449;28;20588;-83
2022/06/23 06:22:21;;;;;;;579.70;529.25;;;;;;;24.21;100.00;99024.25;5091495;28;20239;-83
2022/06/23 06:24:52;;;;;;;564.90;514.33;;;;;;;24.73;98.65;99023.25;5091191;28;20183;-83
2022/06/23 06:27:20;;;;;;;596.20;545.43;;;;;;;25.03;91.65;99022.28;5091602;28;20254;-84
2022/06/23 06:29:49;;;;;;;610.60;559.50;;;;;;;25.28;89.06;99026.41;5091902;28;20545;-82
2022/06/23 06:32:28;;;;;;;581.73;531.07;;;;;;;25.71;85.86;99017.16;5091175;28;20518;-82
2022/06/23 06:35:01;;;;;;;590.27;540.13;;;;;;;25.43;85.66;99022.69;5091433;28;20951;-82
2022/06/23 06:37:31;;;;;;;615.63;564.57;;;;;;;25.33;87.34;99020.28;5092035;28;20418;-82
2022/06/23 06:40:03;;;;;;;635.37;584.10;;;;;;;25.11;88.63;99014.75;5093924;28;20888;-83
2022/06/23 06:42:33;;;;;;;599.93;549.23;;;;;;;24.89;90.49;99008.38;5095580;28;20891;-84
2022/06/23 06:45:04;;;;;;;629.50;578.40;;;;;;;24.83;91.60;99005.56;5095639;28;20881;-83
2022/06/23 06:47:34;;;;;;;618.80;567.90;;;;;;;24.41;95.23;99001.66;5095120;28;20484;-83
2022/06/23 06:50:06;;;;;;;619.20;568.13;;;;;;;24.50;95.60;99006.03;5095712;28;20418;-83
2022/06/23 06:52:33;;;;;;;618.73;567.67;;;;;;;24.49;95.21;99012.56;5095402;28;20892;-83
2022/06/23 06:55:05;;;;;;;632.60;580.30;;;;;;;24.70;94.31;99001.63;5095100;28;20428;-83
2022/06/23 06:57:39;;;;;;;630.27;579.00;;;;;;;24.94;92.32;99007.78;5094895;28;20458;-82
2022/06/23 07:00:12;;;;;;;607.63;556.83;;;;;;;25.03;91.29;99020.38;5094814;28;20499;-84
2022/06/23 07:02:45;;;;;;;594.30;544.23;;;;;;;25.10;91.60;99012.19;5095222;28;20453;-83
2022/06/23 07:05:21;;;;;;;600.83;550.33;;;;;;;25.32;89.82;99016.66;5094798;28;20426;-83
2022/06/23 07:07:52;;;;;;;629.53;578.73;;;;;;;25.36;88.88;99006.09;5094979;28;20773;-83
2022/06/23 07:10:30;;;;;;;617.23;566.47;;;;;;;25.37;89.75;99010.53;5094882;28;20501;-83
2022/06/23 07:13:05;;;;;;;605.07;554.67;;;;;;;25.07;92.35;99001.56;5094260;28;20457;-83
2022/06/23 07:15:37;;;;;;;644.80;593.50;;;;;;;24.84;95.22;98999.00;5094273;28;20468;-83
2022/06/23 07:18:16;;;;;;;616.23;565.63;;;;;;;25.26;92.08;98997.31;5094562;28;20426;-83
2022/06/23 07:20:46;;;;;;;629.67;578.77;;;;;;;25.49;89.82;99005.38;5093981;28;20903;-83
2022/06/23 07:23:18;;;;;;;615.27;564.40;;;;;;;25.72;87.90;99007.88;5094621;28;20529;-83
2022/06/23 07:25:50;;;;;;;599.63;549.43;;;;;;;25.74;86.99;99003.00;5097903;28;20513;-77
2022/06/23 07:28:24;;;;;;;609.10;558.57;;;;;;;25.81;86.54;99001.13;5094512;28;20449;-79
2022/06/23 07:30:56;;;;;;;639.77;588.37;;;;;;;25.97;85.79;99000.00;5094201;28;20509;-76
2022/06/23 07:33:27;;;;;;;641.30;590.10;;;;;;;26.39;83.27;98998.94;5094026;28;20802;-76
2022/06/23 07:36:00;;;;;;;632.93;582.00;;;;;;;26.50;81.24;98994.75;5094410;28;20868;-78
2022/06/23 07:38:33;;;;;;;613.80;562.93;;;;;;;26.32;82.17;98987.03;5093704;28;20419;-77
2022/06/23 07:41:07;;;;;;;653.93;602.67;;;;;;;26.40;82.14;98986.81;5094034;28;20520;-76
2022/06/23 07:43:41;;;;;;;663.80;611.93;;;;;;;26.36;82.42;98996.56;5094025;28;20418;-78
2022/06/23 07:46:08;;;;;;;651.83;600.73;;;;;;;26.62;81.30;98993.09;5094070;28;20437;-77
2022/06/23 07:48:36;;;;;;;660.33;608.40;;;;;;;26.43;82.09;98985.56;5093670;28;20928;-79
2022/06/23 07:51:04;;;;;;;662.53;611.13;;;;;;;26.19;83.89;98985.06;5093579;28;20455;-77
2022/06/23 07:53:37;;;;;;;665.87;614.27;;;;;;;26.20;84.73;98986.72;5093633;28;20438;-77
2022/06/23 07:56:08;;;;;;;649.70;598.20;;;;;;;26.42;82.89;98983.88;5093674;28;20517;-77
2022/06/23 07:58:39;;;;;;;669.47;618.00;;;;;;;26.50;82.06;98977.31;5093990;28;20438;-77
2022/06/23 08:01:11;;;;;;;671.97;620.27;;;;;;;26.74;80.41;98979.53;5093253;28;20505;-78
2022/06/23 08:03:54;;;;;;;640.13;588.87;;;;;;;27.04;78.59;98981.91;5093436;28;20843;-77
2022/06/23 08:06:24;;;;;;;662.10;610.87;;;;;;;26.97;78.73;98976.38;5093560;28;20946;-77
2022/06/23 08:08:55;;;;;;;663.17;611.63;;;;;;;27.08;77.02;98985.97;5093857;28;20789;-78
2022/06/23 08:14:20;;;;;;;683.57;631.23;;;;;;;27.23;77.65;98983.88;5093363;28;20410;-78
2022/06/23 08:16:52;;;;;;;672.50;619.77;;;;;;;26.97;79.14;98978.31;5093445;28;20865;-77
2022/06/23 08:19:30;;;;;;;683.23;631.23;;;;;;;26.97;78.88;98975.53;5093495;28;20434;-79
2022/06/23 08:22:04;;;;;;;674.43;622.57;;;;;;;26.70;80.27;98969.97;5093231;28;20487;-78
2022/06/23 08:24:32;;;;;;;651.10;600.00;;;;;;;26.93;79.62;98977.88;5093305;28;20798;-77
2022/06/23 08:27:04;;;;;;;656.73;604.73;;;;;;;27.27;77.24;98970.47;5093000;28;20481;-77
2022/06/23 08:29:35;;;;;;;686.33;633.67;;;;;;;27.58;75.18;98971.75;5093112;28;20513;-77
2022/06/23 08:32:02;;;;;;;682.57;630.60;;;;;;;27.77;73.68;98970.00;5092578;28;20521;-77
2022/06/23 08:34:31;;;;;;;687.10;635.33;;;;;;;27.72;73.58;98967.88;5093045;28;20800;-77
2022/06/23 08:37:03;;;;;;;698.23;646.23;;;;;;;27.93;72.06;98969.59;5092758;28;20441;-77
2022/06/23 08:39:37;;;;;;;687.20;634.90;;;;;;;28.12;71.26;98972.50;5092848;28;20438;-77
2022/06/23 08:42:09;;;;;;;702.37;649.93;;;;;;;27.94;71.46;98962.97;5092477;28;20536;-77
2022/06/23 08:44:42;;;;;;;705.20;652.70;;;;;;;28.12;70.19;98958.69;5092397;28;20441;-77
2022/06/23 08:47:19;;;;;;;685.70;634.10;;;;;;;28.00;71.07;98951.06;5092631;28;21063;-77
2022/06/23 08:49:51;;;;;;;709.83;657.63;;;;;;;28.18;69.94;98950.34;5092702;28;20529;-77
2022/06/23 08:52:28;;;;;;;703.07;650.90;;;;;;;28.21;69.66;98952.66;5092427;28;20422;-77
2022/06/23 08:55:01;;;;;;;674.27;622.73;;;;;;;28.26;69.75;98960.31;5092433;28;20851;-77
2022/06/23 08:57:35;;;;;;;702.53;650.07;;;;;;;28.43;68.41;98958.75;5093073;28;20525;-78
2022/06/23 09:00:08;;;;;;;712.67;660.10;;;;;;;28.16;70.66;98965.47;5092529;28;20847;-77
2022/06/23 09:02:44;;;;;;;705.43;653.33;;;;;;;28.74;67.23;98973.75;5091696;28;20846;-78
2022/06/23 09:05:18;;;;;;;728.53;675.83;;;;;;;29.10;64.44;98975.00;5092680;28;20894;-78
2022/06/23 09:07:53;;;;;;;731.03;678.13;;;;;;;29.57;62.41;98967.16;5092329;28;20850;-77
2022/06/23 09:10:30;;;;;;;746.17;693.10;;;;;;;29.35;62.95;98972.25;5091948;28;20814;-77
2022/06/23 09:13:07;;;;;;;725.23;672.53;;;;;;;29.52;62.20;98967.00;5091690;28;20429;-76
2022/06/23 09:16:08;;;;;;;732.83;680.03;;;;;;;28.94;64.84;98956.13;5091865;28;20418;-77
2022/06/23 09:19:08;;;;;;;740.63;687.57;;;;;;;29.39;62.78;98958.78;5091909;28;20501;-77
2022/06/23 09:22:10;;;;;;;718.40;665.80;;;;;;;29.76;60.70;98945.91;5088996;28;20488;-78
2022/06/23 09:24:58;;;;;;;750.23;696.80;;;;;;;29.86;58.01;98950.91;5091533;28;20432;-77
2022/06/23 09:27:39;;;;;;;768.43;714.43;;;;;;;29.94;57.44;98942.28;5092071;28;20469;-77
2022/06/23 09:30:12;;;;;;;766.80;713.40;;;;;;;29.90;57.21;98941.88;5091730;28;20432;-78
2022/06/23 09:32:58;;;;;;;757.87;704.17;;;;;;;29.96;56.59;98937.31;5092035;28;20423;-79
2022/06/23 09:35:45;;;;;;;747.10;694.40;;;;;;;29.91;56.68;98934.41;5091968;28;20509;-77
2022/06/23 09:38:26;;;;;;;770.43;717.33;;;;;;;29.45;58.29;98938.50;5091735;28;20432;-77
2022/06/23 09:41:07;;;;;;;756.73;703.83;;;;;;;29.09;60.39;98934.53;5092179;28;20469;-76
2022/06/23 09:44:24;;;;;;;744.83;691.50;;;;;;;29.07;60.18;98931.94;5091902;28;20418;-76
2022/06/23 09:47:30;;;;;;;744.23;691.53;;;;;;;29.57;58.77;98925.56;5048948;28;20510;-76
2022/06/23 09:50:35;;;;;;;755.30;701.97;;;;;;;29.54;58.27;98927.97;5049126;28;20514;-76
2022/06/23 09:53:38;;;;;;;767.10;713.60;;;;;;;29.76;57.55;98925.59;5027682;28;20551;-76
2022/06/23 09:56:37;;;;;;;766.93;713.67;;;;;;;30.15;55.88;98927.06;5091461;28;20509;-76
2022/06/23 09:59:33;;;;;;;756.40;703.27;;;;;;;30.31;54.78;98926.47;5076247;28;20510;-74
2022/06/23 10:02:08;;;;;;;776.37;722.57;;;;;;;29.82;56.93;98917.19;5090880;28;20549;-74
2022/06/23 10:05:06;;;;;;;745.83;692.83;;;;;;;29.37;58.77;98936.00;5089912;28;20511;-74
2022/06/23 10:07:55;;;;;;;741.60;688.50;;;;;;;29.86;57.37;98925.94;5090836;28;20487;-73
2022/06/23 10:10:48;;;;;;;757.73;704.73;;;;;;;30.16;55.29;98917.66;5090186;28;20450;-74
2022/06/23 10:13:37;;;;;;;751.20;698.03;;;;;;;30.32;54.13;98921.75;5093366;28;20892;-73
2022/06/23 10:16:26;;;;;;;751.83;698.63;;;;;;;30.14;54.80;98920.69;5096951;28;20517;-76
2022/06/23 10:19:07;;;;;;;767.60;713.97;;;;;;;30.07;55.08;98925.44;5097556;28;20946;-74
2022/06/23 10:21:53;;;;;;;771.30;717.90;;;;;;;30.09;54.79;98919.66;5096876;28;20465;-74
2022/06/23 10:24:53;;;;;;;778.40;724.57;;;;;;;30.23;54.33;98923.13;5097105;28;20508;-74
2022/06/23 10:27:52;;;;;;;760.23;706.90;;;;;;;30.02;53.89;98916.13;5089526;28;20503;-74
2022/06/23 10:30:23;;;;;;;766.87;713.10;;;;;;;30.06;53.47;98912.66;5073555;28;20437;-74
2022/06/23 10:33:15;;;;;;;776.47;723.13;;;;;;;30.22;53.47;98910.34;5096982;28;20426;-75
2022/06/23 10:35:53;;;;;;;748.70;695.67;;;;;;;30.18;51.83;98909.94;5097010;28;20435;-74
2022/06/23 10:38:42;;;;;;;749.90;696.67;;;;;;;30.05;52.96;98893.47;5095961;28;20450;-75
2022/06/23 10:41:30;;;;;;;771.13;717.97;;;;;;;30.24;51.58;98900.69;5097263;28;20610;-73
2022/06/23 10:44:09;;;;;;;763.10;710.00;;;;;;;30.26;52.06;98894.91;5097153;28;20413;-74
2022/06/23 10:46:42;;;;;;;760.43;707.73;;;;;;;30.29;51.51;98883.34;5096929;28;20512;-74
2022/06/23 10:49:35;;;;;;;755.23;702.47;;;;;;;30.00;52.33;98879.44;5097259;28;20422;-74
2022/06/23 10:52:35;;;;;;;740.67;688.20;;;;;;;30.06;52.09;98887.69;5096636;28;20521;-73
2022/06/23 10:55:38;;;;;;;751.33;698.33;;;;;;;30.12;51.71;98875.66;5096703;28;20512;-74
2022/06/23 10:58:40;;;;;;;765.77;712.17;;;;;;;29.82;53.19;98878.34;5097006;28;20509;-74
2022/06/23 11:01:24;;;;;;;752.37;699.47;;;;;;;29.88;53.47;98866.34;5089970;28;20535;-75
2022/06/23 11:04:14;;;;;;;753.50;700.57;;;;;;;30.33;52.28;98870.72;5096738;28;20437;-74
2022/06/23 11:07:06;;;;;;;779.50;725.50;;;;;;;30.62;50.88;98859.78;5097045;28;20956;-73
2022/06/23 11:09:54;;;;;;;793.03;738.30;;;;;;;30.43;50.62;98861.81;5097007;28;20953;-73
2022/06/23 11:12:42;;;;;;;781.53;727.77;;;;;;;30.65;49.98;98862.94;5097120;28;20504;-74
2022/06/23 11:15:19;;;;;;;772.07;718.67;;;;;;;30.68;49.77;98864.41;5096752;28;20553;-73
2022/06/23 11:18:12;;;;;;;788.37;734.77;;;;;;;30.75;49.47;98857.69;5096614;28;20487;-73
2022/06/23 11:20:50;;;;;;;774.83;721.27;;;;;;;30.81;49.18;98855.03;5096894;28;20542;-74
2022/06/23 11:23:28;;;;;;;775.83;722.57;;;;;;;30.76;49.82;98847.41;5096685;28;20426;-75
2022/06/23 11:26:07;;;;;;;784.60;731.30;;;;;;;30.89;49.27;98852.78;5093409;28;20480;-75
2022/06/23 11:28:50;;;;;;;803.43;748.93;;;;;;;30.85;48.98;98837.66;5093980;28;20896;-73
2022/06/23 11:31:28;;;;;;;786.40;732.73;;;;;;;30.79;49.19;98838.56;5093682;28;20441;-74
2022/06/23 11:34:13;;;;;;;793.57;739.37;;;;;;;30.86;48.43;98825.44;5095785;28;20478;-73
2022/06/23 11:36:57;;;;;;;778.13;724.77;;;;;;;30.92;47.46;98827.28;5093623;28;20490;-74
2022/06/23 11:39:47;;;;;;;815.80;761.43;;;;;;;31.18;47.19;98822.31;5093671;28;20513;-73
2022/06/23 11:42:35;;;;;;;800.97;747.00;;;;;;;31.37;47.25;98823.06;5095455;28;20470;-76
2022/06/23 11:45:18;;;;;;;806.13;752.20;;;;;;;31.38;46.32;98814.44;5093114;28;20506;-79